createdAt,value
2022-10-08T00:02:41.612Z,96.06
2022-10-08T00:06:07.091Z,96.42
2022-10-08T00:09:09.682Z,96.55
2022-10-08T00:12:12.268Z,96.13
2022-10-08T00:15:17.825Z,96.17
2022-10-08T00:18:22.103Z,96.70
2022-10-08T00:21:30.230Z,95.64
2022-10-08T00:24:34.277Z,95.30
2022-10-08T00:27:37.252Z,95.85
2022-10-08T00:30:41.641Z,96.35
2022-10-08T00:33:44.236Z,96.13
2022-10-08T00:36:50.231Z,95.34
2022-10-08T00:39:52.887Z,95.40
2022-10-08T00:42:55.973Z,96.23
2022-10-08T00:45:58.556Z,96.01
2022-10-08T00:49:03.328Z,96.69
2022-10-08T00:52:05.926Z,96.67
2022-10-08T00:55:13.827Z,96.58
2022-10-08T00:58:20.233Z,96.80
2022-10-08T01:01:23.283Z,95.68
2022-10-08T01:04:25.824Z,97.47
2022-10-08T01:07:35.824Z,97.39
2022-10-08T01:10:49.291Z,97.35
2022-10-08T01:14:22.504Z,96.63
2022-10-08T01:17:37.887Z,97.00
2022-10-08T01:20:45.451Z,96.31
2022-10-08T01:24:00.622Z,96.18
2022-10-08T01:27:12.176Z,96.48
2022-10-08T01:30:17.553Z,96.33
2022-10-08T01:33:28.512Z,96.44
2022-10-08T01:36:51.638Z,96.93
2022-10-08T01:39:55.745Z,97.13
2022-10-08T01:43:00.240Z,97.53
2022-10-08T01:46:20.995Z,97.01
2022-10-08T01:49:26.405Z,96.20
2022-10-08T01:52:33.384Z,96.61
2022-10-08T01:55:39.596Z,96.55
2022-10-08T01:58:52.549Z,96.73
2022-10-08T02:02:02.295Z,98.08
2022-10-08T02:05:06.038Z,98.20
2022-10-08T02:08:08.705Z,99.30
2022-10-08T02:11:11.300Z,98.39
2022-10-08T02:14:13.824Z,98.61
2022-10-08T02:17:28.463Z,97.98
2022-10-08T02:20:37.782Z,97.88
2022-10-08T02:24:11.626Z,98.06
2022-10-08T02:27:14.478Z,97.66
2022-10-08T02:30:18.261Z,98.37
2022-10-08T02:33:31.576Z,97.98
2022-10-08T02:36:40.221Z,97.88
2022-10-08T02:39:49.145Z,97.89
2022-10-08T02:42:55.443Z,97.93
2022-10-08T02:46:12.074Z,97.62
2022-10-08T02:49:18.320Z,98.16
2022-10-08T02:52:21.780Z,97.93
2022-10-08T02:55:45.973Z,98.19
2022-10-08T02:58:52.292Z,99.09
2022-10-08T03:02:00.917Z,99.61
2022-10-08T03:05:06.569Z,98.96
2022-10-08T03:08:11.259Z,98.86
2022-10-08T03:11:13.953Z,99.67
2022-10-08T03:14:20.678Z,99.36
2022-10-08T03:17:26.379Z,98.86
2022-10-08T03:20:31.120Z,98.72
2022-10-08T03:23:33.642Z,97.86
2022-10-08T03:26:36.807Z,97.44
2022-10-08T03:29:39.490Z,98.12
2022-10-08T03:32:42.000Z,98.80
2022-10-08T03:35:47.943Z,99.63
2022-10-08T03:38:53.702Z,98.81
2022-10-08T03:41:56.225Z,98.55
2022-10-08T03:45:02.429Z,98.21
2022-10-08T03:48:05.752Z,98.87
2022-10-08T03:51:12.440Z,100.00
2022-10-08T03:54:15.031Z,100.00
2022-10-08T03:57:17.550Z,100.00
2022-10-08T04:00:20.248Z,99.87
2022-10-08T04:03:26.781Z,99.57
2022-10-08T04:06:30.801Z,99.62
2022-10-08T04:09:33.609Z,100.00
2022-10-08T04:12:36.090Z,100.00
2022-10-08T04:15:38.880Z,99.50
2022-10-08T04:18:42.211Z,99.90
2022-10-08T04:21:44.903Z,100.00
2022-10-08T04:24:47.443Z,99.76
2022-10-08T04:27:50.515Z,99.42
2022-10-08T04:30:57.847Z,99.80
2022-10-08T04:34:00.515Z,99.47
2022-10-08T04:37:03.107Z,98.97
2022-10-08T04:40:06.168Z,99.48
2022-10-08T04:43:09.467Z,98.94
2022-10-08T04:46:13.953Z,98.58
2022-10-08T04:49:16.575Z,99.12
2022-10-08T04:52:20.695Z,99.47
2022-10-08T04:55:25.041Z,98.95
2022-10-08T04:58:27.560Z,98.36
2022-10-08T05:01:30.564Z,99.20
2022-10-08T05:04:33.214Z,99.09
2022-10-08T05:07:35.720Z,99.42
2022-10-08T05:10:38.370Z,99.29
2022-10-08T05:13:41.530Z,98.88
2022-10-08T05:16:44.048Z,98.75
2022-10-08T05:19:46.655Z,99.18
2022-10-08T05:22:49.629Z,99.43
2022-10-08T05:25:52.292Z,99.66
2022-10-08T05:28:56.832Z,98.98
2022-10-08T05:31:59.466Z,98.84
2022-10-08T05:35:02.066Z,98.86
2022-10-08T05:38:06.169Z,99.02
2022-10-08T05:41:14.665Z,99.61
2022-10-08T05:44:18.315Z,98.73
2022-10-08T05:47:20.903Z,98.35
2022-10-08T05:50:23.597Z,98.60
2022-10-08T05:53:26.397Z,100.00
2022-10-08T05:56:29.221Z,100.00
2022-10-08T05:59:32.024Z,100.00
2022-10-08T06:02:34.647Z,100.00
2022-10-08T06:05:37.252Z,100.00
2022-10-08T06:08:39.888Z,100.00
2022-10-08T06:11:42.768Z,100.00
2022-10-08T06:14:45.389Z,100.00
2022-10-08T06:17:47.957Z,100.00
2022-10-08T06:20:50.619Z,100.00
2022-10-08T06:23:55.470Z,100.00
2022-10-08T06:26:58.129Z,100.00
2022-10-08T06:30:00.731Z,100.00
2022-10-08T06:33:03.332Z,100.00
2022-10-08T06:36:08.017Z,100.00
2022-10-08T06:39:12.813Z,100.00
2022-10-08T06:42:18.512Z,100.00
2022-10-08T06:45:21.181Z,100.00
2022-10-08T06:48:23.932Z,100.00
2022-10-08T06:51:27.040Z,100.00
2022-10-08T06:54:29.749Z,100.00
2022-10-08T06:57:32.373Z,100.00
2022-10-08T07:00:35.567Z,100.00
2022-10-08T07:03:38.724Z,100.00
2022-10-08T07:06:41.198Z,100.00
2022-10-08T07:09:43.807Z,100.00
2022-10-08T07:12:46.690Z,100.00
2022-10-08T07:15:49.620Z,100.00
2022-10-08T07:18:53.463Z,100.00
2022-10-08T07:22:01.039Z,99.83
2022-10-08T07:25:04.312Z,99.53
2022-10-08T07:28:07.118Z,99.55
2022-10-08T07:31:18.282Z,99.27
2022-10-08T07:34:21.291Z,99.00
2022-10-08T07:37:23.878Z,98.61
2022-10-08T07:40:28.069Z,98.59
2022-10-08T07:43:30.589Z,98.08
2022-10-08T07:46:35.922Z,96.84
2022-10-08T07:49:38.425Z,95.30
2022-10-08T07:52:41.188Z,94.56
2022-10-08T07:55:43.717Z,94.17
2022-10-08T07:58:47.568Z,92.80
2022-10-08T08:01:50.156Z,93.17
2022-10-08T08:04:55.775Z,92.63
2022-10-08T08:07:58.288Z,91.82
2022-10-08T08:11:02.349Z,89.79
2022-10-08T08:14:06.331Z,89.32
2022-10-08T08:17:11.981Z,87.55
2022-10-08T08:20:16.530Z,84.74
2022-10-08T08:23:19.166Z,83.68
2022-10-08T08:26:25.586Z,84.96
2022-10-08T08:29:28.177Z,83.49
2022-10-08T08:32:30.754Z,83.10
2022-10-08T08:35:33.577Z,83.75
2022-10-08T08:38:39.871Z,80.92
2022-10-08T08:41:49.810Z,79.17
2022-10-08T08:45:02.316Z,77.57
2022-10-08T08:48:34.144Z,78.25
2022-10-08T08:51:37.193Z,79.16
2022-10-08T08:54:40.057Z,75.50
2022-10-08T08:57:57.821Z,74.18
2022-10-08T09:01:31.786Z,74.12
2022-10-08T09:04:44.958Z,74.21
2022-10-08T09:07:57.756Z,73.52
2022-10-08T09:11:03.046Z,70.47
2022-10-08T09:14:17.682Z,70.48
2022-10-08T09:17:24.303Z,71.07
2022-10-08T09:20:27.769Z,69.89
2022-10-08T09:23:30.407Z,70.98
2022-10-08T09:26:36.551Z,68.73
2022-10-08T09:29:42.365Z,64.77
2022-10-08T09:32:49.233Z,66.36
2022-10-08T09:35:53.663Z,65.08
2022-10-08T09:39:00.199Z,66.66
2022-10-08T09:42:18.340Z,65.75
2022-10-08T09:45:33.493Z,60.90
2022-10-08T09:48:38.211Z,60.48
2022-10-08T09:51:42.568Z,62.95
2022-10-08T09:54:49.198Z,57.83
2022-10-08T09:57:54.619Z,59.11
2022-10-08T10:01:07.504Z,56.88
2022-10-08T10:04:38.879Z,56.65
2022-10-08T10:07:44.193Z,56.23
2022-10-08T10:10:47.130Z,56.66
2022-10-08T10:13:50.501Z,53.73
2022-10-08T10:17:00.862Z,50.48
2022-10-08T10:20:26.512Z,52.54
2022-10-08T10:23:42.703Z,52.46
2022-10-08T10:26:46.245Z,51.91
2022-10-08T10:29:55.502Z,53.29
2022-10-08T10:33:03.823Z,51.79
2022-10-08T10:36:11.003Z,52.32
2022-10-08T10:39:28.383Z,51.48
2022-10-08T10:42:35.905Z,51.31
2022-10-08T10:45:40.403Z,50.58
2022-10-08T10:48:43.044Z,46.67
2022-10-08T10:52:21.843Z,47.97
2022-10-08T10:55:35.294Z,48.42
2022-10-08T10:58:43.882Z,49.51
2022-10-08T11:02:04.717Z,48.73
2022-10-08T11:05:22.472Z,49.09
2022-10-08T11:08:34.857Z,47.86
2022-10-08T11:11:55.056Z,49.29
2022-10-08T11:15:06.103Z,48.36
2022-10-08T11:18:24.030Z,47.63
2022-10-08T11:21:55.846Z,45.38
2022-10-08T11:25:05.039Z,44.93
2022-10-08T11:28:25.750Z,45.96
2022-10-08T11:31:40.616Z,46.05
2022-10-08T11:34:49.862Z,46.60
2022-10-08T11:38:08.826Z,48.16
2022-10-08T11:41:33.807Z,47.67
2022-10-08T11:44:37.545Z,47.42
2022-10-08T11:47:43.337Z,47.84
2022-10-08T11:50:45.986Z,48.66
2022-10-08T11:54:10.059Z,48.25
2022-10-08T11:57:22.534Z,46.96
2022-10-08T12:00:42.218Z,46.56
2022-10-08T12:04:10.157Z,45.63
2022-10-08T12:07:15.811Z,45.92
2022-10-08T12:10:18.415Z,46.28
2022-10-08T12:13:27.024Z,45.51
2022-10-08T12:16:48.006Z,44.46
2022-10-08T12:20:19.407Z,44.39
2022-10-08T12:23:22.080Z,44.04
2022-10-08T12:26:24.834Z,44.26
2022-10-08T12:29:28.845Z,45.12
2022-10-08T12:32:34.706Z,43.97
2022-10-08T12:35:42.364Z,43.37
2022-10-08T12:39:01.603Z,45.18
2022-10-08T12:42:07.450Z,45.26
2022-10-08T12:45:25.243Z,45.96
2022-10-08T12:48:34.907Z,46.08
2022-10-08T12:51:44.233Z,45.07
2022-10-08T12:54:51.311Z,44.92
2022-10-08T12:57:54.040Z,44.30
2022-10-08T13:01:02.301Z,45.63
2022-10-08T13:04:10.080Z,46.11
2022-10-08T13:07:26.898Z,45.99
2022-10-08T13:10:32.702Z,47.10
2022-10-08T13:13:38.338Z,48.06
2022-10-08T13:16:48.075Z,48.56
2022-10-08T13:20:08.062Z,48.44
2022-10-08T13:23:34.441Z,48.56
2022-10-08T13:26:50.010Z,49.16
2022-10-08T13:29:53.688Z,49.81
2022-10-08T13:33:04.334Z,49.63
2022-10-08T13:36:10.185Z,48.36
2022-10-08T13:39:27.918Z,46.69
2022-10-08T13:42:33.769Z,45.52
2022-10-08T13:45:39.717Z,46.82
2022-10-08T13:48:45.697Z,47.10
2022-10-08T13:51:49.257Z,47.43
2022-10-08T13:54:54.613Z,47.49
2022-10-08T13:58:00.276Z,48.60
2022-10-08T14:01:02.924Z,49.68
2022-10-08T14:04:05.719Z,50.14
2022-10-08T14:07:27.737Z,49.56
2022-10-08T14:10:30.523Z,47.79
2022-10-08T14:13:33.050Z,46.49
2022-10-08T14:16:35.679Z,46.04
2022-10-08T14:19:38.611Z,45.45
2022-10-08T14:22:41.639Z,44.83
2022-10-08T14:25:44.346Z,45.54
2022-10-08T14:28:47.217Z,45.86
2022-10-08T14:31:53.350Z,46.48
2022-10-08T14:34:55.936Z,47.91
2022-10-08T14:37:58.511Z,49.16
2022-10-08T14:41:01.187Z,49.75
2022-10-08T14:44:03.896Z,51.67
2022-10-08T14:47:06.618Z,52.75
2022-10-08T14:50:10.007Z,53.21
2022-10-08T14:53:13.597Z,53.73
2022-10-08T14:56:16.278Z,54.19
2022-10-08T14:59:19.634Z,54.95
2022-10-08T15:02:22.393Z,55.80
2022-10-08T15:05:25.201Z,56.74
2022-10-08T15:08:28.400Z,57.64
2022-10-08T15:11:31.203Z,58.90
2022-10-08T15:14:37.948Z,60.38
2022-10-08T15:17:42.387Z,60.83
2022-10-08T15:20:54.195Z,61.65
2022-10-08T15:23:59.555Z,63.45
2022-10-08T15:27:02.082Z,64.34
2022-10-08T15:30:05.522Z,65.14
2022-10-08T15:33:08.390Z,65.80
2022-10-08T15:36:36.320Z,66.93
2022-10-08T15:39:39.031Z,68.42
2022-10-08T15:42:41.677Z,68.75
2022-10-08T15:45:44.780Z,68.50
2022-10-08T15:48:55.490Z,68.58
2022-10-08T15:51:58.174Z,69.62
2022-10-08T15:55:02.102Z,71.12
2022-10-08T15:58:04.773Z,72.04
2022-10-08T16:01:18.471Z,72.91
2022-10-08T16:04:21.331Z,73.64
2022-10-08T16:07:24.086Z,74.50
2022-10-08T16:10:26.748Z,75.56
2022-10-08T16:13:29.447Z,76.06
2022-10-08T16:16:32.294Z,76.66
2022-10-08T16:19:35.036Z,77.17
2022-10-08T16:22:37.725Z,77.86
2022-10-08T16:25:43.527Z,78.19
2022-10-08T16:28:50.647Z,78.42
2022-10-08T16:31:53.348Z,79.74
2022-10-08T16:34:55.920Z,80.45
2022-10-08T16:37:59.359Z,81.03
2022-10-08T16:41:27.785Z,81.50
2022-10-08T16:44:30.437Z,82.64
2022-10-08T16:47:33.163Z,82.52
2022-10-08T16:50:41.356Z,83.29
2022-10-08T16:53:52.534Z,83.53
2022-10-08T16:56:55.691Z,84.03
2022-10-08T17:00:00.334Z,84.24
2022-10-08T17:03:03.947Z,85.04
2022-10-08T17:06:07.017Z,85.31
2022-10-08T17:09:11.713Z,85.66
2022-10-08T17:12:17.423Z,86.02
2022-10-08T17:15:22.259Z,85.93
2022-10-08T17:18:26.605Z,85.50
2022-10-08T17:21:30.321Z,85.67
2022-10-08T17:24:33.054Z,86.15
2022-10-08T17:27:35.814Z,87.08
2022-10-08T17:30:38.582Z,87.36
2022-10-08T17:33:43.537Z,87.15
2022-10-08T17:36:46.608Z,87.81
2022-10-08T17:39:49.245Z,88.02
2022-10-08T17:42:51.884Z,87.85
2022-10-08T17:45:54.613Z,87.32
2022-10-08T17:48:57.759Z,88.06
2022-10-08T17:52:00.395Z,89.18
2022-10-08T17:55:03.758Z,88.83
2022-10-08T17:58:06.603Z,88.84
2022-10-08T18:01:14.758Z,88.85
2022-10-08T18:04:19.187Z,88.61
2022-10-08T18:07:21.805Z,88.85
2022-10-08T18:10:25.143Z,89.72
2022-10-08T18:13:28.009Z,90.04
2022-10-08T18:16:31.434Z,89.23
2022-10-08T18:19:34.082Z,89.04
2022-10-08T18:22:36.744Z,89.37
2022-10-08T18:25:39.993Z,90.32
2022-10-08T18:28:42.982Z,89.97
2022-10-08T18:31:46.844Z,89.63
2022-10-08T18:34:49.967Z,90.55
2022-10-08T18:37:53.479Z,90.48
2022-10-08T18:40:56.117Z,90.63
2022-10-08T18:44:04.660Z,90.89
2022-10-08T18:47:08.173Z,90.93
2022-10-08T18:50:12.388Z,90.49
2022-10-08T18:53:15.225Z,90.81
2022-10-08T18:56:22.045Z,91.01
2022-10-08T18:59:24.850Z,90.88
2022-10-08T19:02:27.770Z,91.04
2022-10-08T19:05:31.184Z,91.16
2022-10-08T19:08:33.959Z,91.54
2022-10-08T19:11:45.019Z,91.28
2022-10-08T19:14:50.418Z,91.69
2022-10-08T19:17:53.521Z,91.57
2022-10-08T19:20:56.288Z,92.08
2022-10-08T19:23:59.602Z,92.05
2022-10-08T19:27:02.279Z,92.05
2022-10-08T19:30:07.003Z,92.21
2022-10-08T19:33:09.693Z,92.06
2022-10-08T19:36:12.425Z,92.41
2022-10-08T19:39:20.664Z,92.33
2022-10-08T19:42:26.570Z,92.62
2022-10-08T19:45:29.841Z,92.18
2022-10-08T19:48:32.837Z,92.41
2022-10-08T19:51:36.973Z,92.69
2022-10-08T19:54:39.669Z,92.80
2022-10-08T19:57:42.529Z,92.89
2022-10-08T20:00:45.137Z,93.04
2022-10-08T20:03:47.962Z,93.08
2022-10-08T20:06:50.745Z,92.99
2022-10-08T20:09:53.466Z,92.84
2022-10-08T20:12:56.014Z,93.00
2022-10-08T20:16:06.659Z,93.22
2022-10-08T20:19:15.701Z,92.92
2022-10-08T20:22:18.321Z,93.26
2022-10-08T20:25:21.646Z,93.03
2022-10-08T20:28:24.236Z,93.47
2022-10-08T20:31:29.404Z,93.26
2022-10-08T20:34:32.235Z,93.34
2022-10-08T20:37:35.087Z,92.77
2022-10-08T20:40:40.629Z,93.04
2022-10-08T20:43:46.284Z,93.28
2022-10-08T20:46:50.190Z,92.90
2022-10-08T20:49:52.817Z,93.55
2022-10-08T20:52:55.284Z,93.40
2022-10-08T20:56:04.014Z,93.73
2022-10-08T20:59:07.457Z,93.32
2022-10-08T21:02:10.897Z,92.88
2022-10-08T21:05:14.809Z,93.49
2022-10-08T21:08:17.413Z,94.10
2022-10-08T21:11:22.624Z,93.98
2022-10-08T21:14:25.331Z,94.31
2022-10-08T21:17:27.865Z,93.64
2022-10-08T21:20:37.245Z,94.20
2022-10-08T21:23:40.841Z,94.30
2022-10-08T21:26:46.746Z,94.32
2022-10-08T21:29:49.352Z,93.77
2022-10-08T21:32:51.939Z,93.93
2022-10-08T21:35:58.257Z,94.05
2022-10-08T21:39:01.836Z,93.73
2022-10-08T21:42:04.453Z,94.37
2022-10-08T21:45:07.673Z,94.58
2022-10-08T21:48:10.197Z,94.25
2022-10-08T21:51:15.542Z,94.61
2022-10-08T21:54:18.442Z,95.05
2022-10-08T21:57:21.056Z,94.58
2022-10-08T22:00:31.636Z,94.81
2022-10-08T22:03:34.548Z,95.00
2022-10-08T22:06:39.650Z,94.61
2022-10-08T22:09:42.340Z,94.74
2022-10-08T22:12:45.115Z,94.54
2022-10-08T22:15:56.137Z,94.70
2022-10-08T22:18:59.287Z,94.72
2022-10-08T22:22:02.839Z,94.61
2022-10-08T22:25:06.549Z,94.29
2022-10-08T22:28:09.554Z,94.29
2022-10-08T22:31:13.700Z,95.20
2022-10-08T22:34:16.329Z,95.59
2022-10-08T22:37:18.984Z,95.19
2022-10-08T22:40:21.501Z,95.27
2022-10-08T22:43:24.001Z,95.54
2022-10-08T22:46:28.995Z,95.59
2022-10-08T22:49:31.528Z,95.58
2022-10-08T22:52:34.181Z,96.25
2022-10-08T22:55:41.985Z,95.89
2022-10-08T22:58:45.944Z,96.17
2022-10-08T23:01:49.133Z,95.68
2022-10-08T23:04:51.754Z,95.73
2022-10-08T23:07:55.909Z,96.59
2022-10-08T23:10:58.956Z,96.56
2022-10-08T23:14:01.870Z,96.87
2022-10-08T23:17:04.603Z,96.55
2022-10-08T23:20:07.427Z,96.28
2022-10-08T23:23:10.003Z,96.50
2022-10-08T23:26:12.888Z,96.23
2022-10-08T23:29:16.524Z,99.80
2022-10-08T23:32:19.092Z,100.00
2022-10-08T23:35:21.931Z,100.00
2022-10-08T23:38:24.539Z,100.00
2022-10-08T23:41:27.366Z,100.00
2022-10-08T23:44:30.061Z,100.00
2022-10-08T23:47:32.616Z,100.00
2022-10-08T23:50:38.759Z,100.00
2022-10-08T23:53:42.725Z,100.00
2022-10-08T23:56:46.343Z,100.00
2022-10-08T23:59:48.921Z,100.00
